Werte bis 5 Uhr SommerzeitDiagramme Oberissigheim: Tagesdaten MonatsdatenCSV-Datei: Oberissigheim20.csv

Wetterdaten 2020 Station: Oberissigheim
Temperaturen in °C relative Nieder- Global- Wind Wind Wind- Sonnen-
Datum Boden Boden Luft Luft Luft Luft Feuchte schlag strahlung max richtung schein
20 cm 5 cm 20 cm 2 m 2 m max 2 m min % mm W/m2*d m/s m/s ° h

07.08.2020 25,3 24,1 15,7 17,2 18,2 15,7 72 0,0 0 0,8 2,0 --- ---
06.08.2020 24,0 24,9 23,0 23,2 33,2 11,6 49 0,0 7472 1,1 7,4 --- 12,8
05.08.2020 22,9 23,4 20,9 20,9 30,3 9,5 53 0,0 7523 1,4 8,0 --- 12,8
04.08.2020 22,4 22,2 19,2 18,9 26,3 12,4 56 0,0 6351 1,8 8,4 --- 11,8
03.08.2020 22,4 21,8 19,2 18,8 24,3 13,6 66 0,0 5091 2,0 6,8 --- 11,5
02.08.2020 23,9 23,6 21,9 21,7 28,1 16,3 69 3,5 3732 1,4 6,9 --- 10,7
01.08.2020 25,1 25,5 24,9 25,2 33,4 16,0 51 0,0 4702 1,2 7,9 --- 11,3
31.07.2020 24,7 26,0 24,9 24,8 36,1 13,0 47 0,0 7766 1,2 4,1 --- 13,1
30.07.2020 23,7 24,5 21,3 21,2 31,7 10,8 52 0,0 7723 1,4 4,7 --- 13,1
29.07.2020 23,2 23,8 19,9 20,0 28,2 10,5 52 0,0 7631 1,3 7,8 --- 13,2
28.07.2020 23,1 24,0 23,4 23,2 29,4 16,5 51 0,0 5939 1,9 10,5 --- 11,9
27.07.2020 22,3 22,6 22,5 22,2 30,8 12,0 59 0,0 5773 1,8 8,7 --- 13,1
26.07.2020 23,3 23,4 21,5 21,1 25,8 17,2 69 2,8 4797 1,8 10,8 --- 11,1
25.07.2020 23,4 24,3 23,0 22,7 29,3 15,5 52 0,0 6092 1,0 6,9 --- 12,0
24.07.2020 23,6 24,1 22,0 21,8 29,6 15,0 50 0,0 5125 1,3 6,8 --- 11,4
23.07.2020 23,3 23,8 20,1 19,8 27,7 11,2 51 0,0 7811 1,6 7,7 --- 12,9
22.07.2020 22,9 23,3 18,8 18,7 27,2 8,2 50 0,0 8114 1,5 6,0 --- 13,3
21.07.2020 22,6 23,1 19,6 19,1 26,6 11,4 54 0,0 8389 2,4 8,5 --- 13,5
20.07.2020 22,5 23,1 20,2 19,9 27,1 12,8 65 0,0 6842 2,1 8,7 --- 12,3
19.07.2020 22,2 23,1 21,7 22,0 31,8 11,0 54 0,0 6939 1,1 8,1 --- 13,2
18.07.2020 21,3 22,6 21,1 21,0 29,9 11,9 57 0,0 7766 0,9 5,0 --- 13,2
17.07.2020 20,1 20,8 18,7 18,2 25,3 12,8 75 3,0 6176 1,4 5,7 --- 11,2
16.07.2020 20,1 19,3 16,3 15,9 19,1 14,0 82 0,1 2032 0,6 3,4 --- 7,2
15.07.2020 21,4 21,1 18,4 17,7 23,9 14,6 73 3,9 4910 1,5 8,1 --- 10,5
14.07.2020 22,0 22,6 20,0 20,3 30,3 9,8 55 0,1 6095 1,3 11,4 --- 10,2
13.07.2020 21,3 22,2 19,5 19,4 28,5 9,6 53 0,0 7900 1,4 6,4 --- 13,7
12.07.2020 20,8 21,2 17,1 16,8 24,9 7,6 61 0,0 7546 1,8 6,4 --- 13,8
11.07.2020 20,4 20,9 17,3 16,9 22,7 10,3 62 0,0 7631 1,9 8,5 --- 13,2
10.07.2020 20,7 20,9 20,5 20,3 25,4 16,1 66 0,0 3470 1,9 12,5 --- 10,1
09.07.2020 19,8 20,8 22,1 21,6 30,6 14,9 71 0,0 6319 1,9 9,4 --- 12,2
08.07.2020 20,1 19,2 15,1 14,8 16,3 13,5 88 7,4 1693 1,0 4,9 --- 6,4
07.07.2020 20,5 20,4 16,3 16,4 23,7 7,6 59 0,0 6510 0,9 5,8 --- 13,4
06.07.2020 21,7 21,5 18,1 17,6 22,3 11,0 56 0,0 5233 2,8 12,7 --- 12,2
05.07.2020 21,8 22,6 23,5 23,1 28,5 20,0 59 0,0 4512 2,2 9,7 --- 8,7
04.07.2020 21,3 21,5 19,9 20,2 28,0 11,6 56 0,0 6038 1,7 11,8 --- 11,6
03.07.2020 21,4 21,7 19,1 19,3 26,1 12,3 63 0,0 7331 1,1 9,3 --- 14,0
02.07.2020 21,8 22,3 20,9 20,5 27,8 15,0 69 1,6 5794 2,0 13,8 --- 12,4
01.07.2020 20,7 21,5 21,8 21,8 29,5 13,5 62 0,0 7116 1,8 9,9 --- 12,8
30.06.2020 20,3 19,9 18,1 18,2 24,0 12,4 57 0,0 4979 1,4 8,4 --- 12,7
29.06.2020 20,8 20,7 18,3 17,9 25,4 12,4 70 1,6 6282 1,8 11,9 --- 12,5
28.06.2020 22,1 21,9 19,8 19,8 25,6 14,6 71 0,4 4350 1,9 10,5 --- 10,8
27.06.2020 22,8 23,3 23,1 23,0 29,4 16,6 69 2,2 5834 1,5 9,9 --- 11,9
26.06.2020 22,4 23,4 22,8 22,7 30,7 14,8 57 0,0 8378 2,0 10,6 --- 12,7
25.06.2020 22,1 22,6 21,8 21,7 29,1 13,8 61 0,0 6590 1,8 7,0 --- 13,8
24.06.2020 21,9 22,8 21,6 21,4 28,7 12,0 54 0,0 8757 1,9 6,4 --- 13,8
23.06.2020 21,3 22,2 20,4 20,3 27,4 11,2 62 0,0 8668 1,6 6,5 --- 14,0
22.06.2020 20,9 21,9 20,5 20,3 25,8 14,6 71 0,0 7693 1,7 6,8 --- 13,9
21.06.2020 19,9 21,0 20,1 20,4 29,1 10,8 64 0,0 8427 0,7 5,3 --- 13,7
20.06.2020 19,3 19,7 18,4 18,3 25,8 13,0 81 3,6 5089 0,9 5,0 --- 11,2
19.06.2020 19,2 19,7 18,4 18,5 24,8 11,4 73 0,0 5978 1,1 7,1 --- 13,8
18.06.2020 19,1 19,8 18,3 18,1 23,5 13,8 78 0,2 5621 1,4 6,1 --- 12,5
17.06.2020 18,8 19,5 17,7 17,5 24,8 13,0 89 8,7 4653 1,2 6,9 --- 8,8
16.06.2020 18,4 18,8 17,7 17,1 19,9 15,2 89 3,3 2686 0,8 4,1 --- 10,5
15.06.2020 18,7 18,8 17,4 17,0 19,6 15,4 90 3,2 2326 1,0 5,1 --- 9,8
14.06.2020 20,0 19,9 18,1 17,9 21,0 15,3 86 27,1 2658 1,8 9,2 --- 9,0
13.06.2020 20,0 21,7 22,8 22,2 34,7 2,4 61 3,1 8131 2,0 8,9 --- 13,2
12.06.2020 17,9 19,4 21,2 20,8 29,0 10,7 66 0,0 8521 2,4 9,1 --- 14,0
11.06.2020 16,8 17,2 15,7 15,3 21,9 12,8 87 3,7 3754 1,6 6,0 --- 11,6
10.06.2020 16,6 16,5 15,1 14,9 19,2 12,6 85 0,3 2732 2,1 6,8 --- 8,3
09.06.2020 17,1 16,9 14,7 14,3 19,6 8,7 78 0,9 3492 1,7 7,2 --- 11,6
08.06.2020 16,9 17,5 14,9 14,7 23,5 6,0 67 0,0 7553 1,2 6,4 --- 12,3
07.06.2020 16,6 16,6 15,0 14,8 19,1 9,7 70 0,0 4694 1,4 7,4 --- 12,1
06.06.2020 16,2 15,7 13,1 12,9 20,1 8,0 78 3,0 5228 2,3 15,3 --- 10,2
05.06.2020 17,6 16,5 12,2 12,1 16,2 8,8 80 5,2 3420 2,4 13,0 --- 10,2
04.06.2020 19,9 19,3 15,2 15,1 19,1 12,2 85 14,6 2321 1,0 8,0 --- 7,5
03.06.2020 21,3 22,2 19,8 20,0 28,5 11,5 54 0,0 6381 1,2 10,1 --- 13,1
02.06.2020 20,8 22,2 20,4 20,6 29,7 9,3 48 0,0 8369 1,3 5,1 --- 13,4
01.06.2020 19,5 20,8 19,4 19,0 28,1 7,9 51 0,0 8686 2,0 8,1 --- 13,8
31.05.2020 18,7 19,2 16,1 15,7 21,2 7,7 51 0,0 7509 2,3 10,4 --- 13,2
30.05.2020 18,6 18,7 15,9 15,7 21,3 8,0 45 0,0 7242 3,0 11,5 --- 13,1
29.05.2020 18,7 19,1 15,9 15,6 22,9 5,8 50 0,0 8072 2,0 7,8 --- 13,8
28.05.2020 19,0 19,7 17,0 16,6 21,8 11,0 52 0,0 8583 3,3 10,6 --- 13,7
27.05.2020 17,5 18,6 16,5 16,8 25,1 6,0 57 0,0 8461 1,0 5,2 --- 13,5
26.05.2020 16,4 16,7 14,4 14,2 21,6 6,0 64 0,0 6572 1,6 5,7 --- 13,0
25.05.2020 16,0 16,2 16,0 15,7 21,4 9,6 66 0,0 5435 2,8 12,5 --- 12,7
24.05.2020 16,1 15,4 13,2 13,0 18,3 7,0 72 0,0 4271 2,2 8,6 --- 9,1
23.05.2020 17,9 17,5 14,2 14,0 17,9 10,9 81 3,4 2678 1,5 9,6 --- 9,2
22.05.2020 19,3 19,7 19,3 19,5 25,6 12,4 69 4,8 3718 1,3 11,2 --- 11,9
21.05.2020 19,4 20,7 18,9 19,1 27,5 9,7 60 0,0 8210 1,2 4,8 --- 13,5
20.05.2020 18,7 19,9 18,8 18,6 24,3 12,4 61 0,0 7539 2,1 8,6 --- 12,8
19.05.2020 17,8 18,8 17,5 17,9 26,3 7,5 58 0,0 7532 1,4 6,5 --- 13,2
18.05.2020 16,7 17,7 15,7 16,2 25,9 4,7 58 0,0 7919 1,2 7,8 --- 13,2
17.05.2020 15,7 16,4 13,2 13,4 20,7 5,4 58 0,0 8137 1,4 5,8 --- 13,3
16.05.2020 14,5 15,0 11,8 12,0 21,6 2,2 59 0,0 8035 1,3 5,0 --- 13,3
15.05.2020 13,3 13,4 11,4 11,1 17,9 4,2 59 0,0 7993 2,6 8,2 --- 13,3
14.05.2020 12,9 12,1 10,0 9,7 15,4 3,7 67 0,0 6028 3,3 9,0 --- 12,7
13.05.2020 13,0 12,7 9,6 9,6 15,8 1,7 65 0,0 5673 1,7 7,8 --- 12,5
12.05.2020 12,3 12,0 7,6 7,9 15,0 -0,2 62 0,0 7099 1,0 5,0 --- 12,9
11.05.2020 14,2 11,9 7,0 7,2 13,9 3,7 91 19,0 1510 4,8 14,2 --- 5,3
10.05.2020 15,7 16,9 16,6 16,5 26,0 10,6 81 3,6 5162 1,3 11,1 --- 9,6
09.05.2020 15,8 15,6 14,6 14,3 19,0 9,1 75 1,3 2175 1,3 4,2 --- 8,7
08.05.2020 15,9 17,0 16,0 16,5 26,1 7,4 55 0,0 6971 1,1 3,9 --- 12,3
07.05.2020 14,4 15,2 13,0 13,6 24,3 2,3 56 0,1 7818 1,0 4,6 --- 12,7
06.05.2020 13,2 12,8 10,6 10,6 18,3 1,3 57 0,0 7954 1,6 10,2 --- 13,0
05.05.2020 13,1 12,4 9,5 9,4 15,9 2,9 67 0,0 7444 2,6 8,6 --- 13,1
04.05.2020 13,8 13,8 11,9 11,9 16,3 6,2 80 1,1 3436 1,8 8,9 --- 10,7
03.05.2020 13,2 13,4 12,1 12,3 18,8 5,4 68 0,1 5874 0,9 5,5 --- 12,1
02.05.2020 12,8 12,4 9,4 9,3 15,1 6,5 83 2,7 4791 1,8 14,1 --- 10,2
01.05.2020 13,3 12,8 10,3 10,3 14,5 7,2 86 20,1 3713 2,5 10,7 --- 8,5
30.04.2020 14,4 14,0 12,0 11,9 16,2 9,9 85 10,3 2865 2,8 10,4 --- 8,1
29.04.2020 14,8 15,1 14,5 14,3 20,5 9,3 66 0,0 5129 1,8 9,9 --- 9,6
28.04.2020 15,4 15,1 12,4 12,5 19,2 5,1 71 2,3 2861 1,2 10,6 --- 8,1
27.04.2020 16,0 16,5 14,2 14,7 24,5 2,5 50 0,0 7154 1,3 8,9 --- 12,1
26.04.2020 15,6 15,8 12,5 12,7 23,0 2,4 52 0,0 7291 1,2 4,7 --- 12,4
25.04.2020 15,6 15,7 12,0 11,9 18,4 6,5 54 0,0 7196 2,4 7,4 --- 12,2
24.04.2020 15,6 16,0 14,2 14,4 23,8 3,9 53 0,0 6183 1,8 8,4 --- 11,6
23.04.2020 15,5 16,3 15,4 15,5 25,4 6,7 41 0,0 7165 1,7 6,0 --- 12,3
22.04.2020 14,9 15,8 16,1 15,8 23,2 7,0 34 0,0 7228 3,4 9,8 --- 12,2
21.04.2020 14,2 14,8 15,2 14,8 21,4 6,7 32 0,0 7175 4,1 12,8 --- 12,2
20.04.2020 13,8 14,0 13,2 12,9 19,8 5,0 37 0,0 7072 3,9 13,8 --- 12,1
19.04.2020 14,4 14,6 13,3 13,2 17,9 8,7 69 0,0 3721 2,3 9,3 --- 9,9
18.04.2020 14,6 15,6 16,1 16,3 26,1 8,2 64 0,0 4537 1,7 7,7 --- 8,7
17.04.2020 13,7 14,8 15,3 15,7 26,8 5,2 57 0,0 6276 1,3 5,0 --- 11,3
16.04.2020 12,2 12,8 13,3 13,9 25,2 1,7 52 0,0 6260 1,4 5,9 --- 11,5
15.04.2020 10,9 10,6 8,0 8,4 18,2 -1,6 56 0,0 5907 1,1 3,8 --- 11,1
14.04.2020 10,7 9,2 5,0 5,3 13,3 -2,6 55 0,0 5529 1,9 9,0 --- 11,8
13.04.2020 13,0 11,8 8,5 8,9 14,6 1,3 65 1,5 3229 3,3 12,2 --- 9,3
12.04.2020 13,9 14,4 14,4 14,9 25,6 5,0 49 0,0 4779 1,2 7,8 --- 10,2
11.04.2020 13,9 14,3 13,1 13,6 24,5 3,3 45 0,0 6399 1,6 5,8 --- 11,5
10.04.2020 13,8 14,5 14,5 14,6 22,3 6,0 55 0,0 6282 2,5 9,8 --- 11,6
09.04.2020 13,3 14,1 14,8 15,4 25,7 5,7 52 0,0 5576 1,6 6,9 --- 10,7
08.04.2020 12,7 13,8 15,5 16,1 26,2 6,3 51 0,0 5876 1,6 5,6 --- 11,2
07.04.2020 11,6 12,5 14,2 14,7 23,9 3,6 54 0,0 5299 1,7 6,6 --- 11,2
06.04.2020 10,7 11,6 13,4 14,6 23,7 4,5 40 0,0 5951 1,4 10,4 --- 11,2
05.04.2020 9,7 10,4 12,2 12,4 19,7 4,8 44 0,0 6002 2,9 9,7 --- 11,2
04.04.2020 8,5 8,8 7,6 8,2 18,0 -1,7 58 0,0 5881 1,1 4,2 --- 11,1
03.04.2020 8,3 8,1 7,5 7,6 13,3 1,7 60 0,0 2701 1,6 7,2 --- 7,3
02.04.2020 7,9 7,8 5,7 6,1 15,0 -3,8 53 0,0 5668 1,5 6,7 --- 10,8
01.04.2020 7,5 7,0 4,0 4,4 13,0 -4,5 45 0,0 5835 1,3 6,5 --- 11,0
31.03.2020 7,6 7,4 5,4 5,1 9,2 1,0 53 0,0 5703 2,8 8,7 --- 10,9
30.03.2020 6,7 5,8 3,1 3,1 9,6 -4,2 48 0,0 5709 2,6 11,7 --- 10,4
29.03.2020 7,9 6,7 4,8 4,7 8,8 1,3 65 0,0 2409 5,1 11,9 --- 7,1
28.03.2020 8,5 9,0 10,8 11,0 18,5 2,0 51 0,0 5109 3,5 10,0 --- 10,5
27.03.2020 7,2 7,4 9,8 9,9 17,3 1,5 50 0,0 4939 3,1 8,0 --- 10,1
26.03.2020 6,3 5,8 6,4 6,2 11,8 1,1 42 0,0 5047 3,4 9,4 --- 10,3
25.03.2020 5,9 4,9 4,9 5,0 11,3 -1,3 32 0,0 5465 3,2 11,8 --- 10,6
24.03.2020 5,9 4,8 3,7 3,7 10,3 -2,2 38 0,0 5426 3,2 10,9 --- 10,6
23.03.2020 6,2 4,8 3,3 3,2 9,4 -1,9 40 0,0 5360 3,4 10,9 --- 10,5
22.03.2020 6,9 5,5 4,3 4,1 9,4 0,0 45 0,0 5330 3,8 11,9 --- 10,4
21.03.2020 8,8 7,4 5,5 5,4 7,9 2,1 69 1,7 2072 4,3 12,6 --- 8,3
20.03.2020 10,1 10,3 10,6 10,4 16,2 6,2 76 0,0 3632 3,4 10,9 --- 8,4
19.03.2020 9,7 10,1 10,2 10,6 19,6 2,5 74 0,0 4641 1,4 5,0 --- 10,0
18.03.2020 9,3 9,8 9,8 10,5 19,9 3,1 75 0,0 3562 0,8 3,8 --- 9,0
17.03.2020 9,2 10,0 11,1 11,2 17,8 6,7 75 0,0 3097 1,0 5,6 --- 8,7
16.03.2020 7,9 8,4 9,8 10,4 20,2 1,1 64 0,0 4133 1,0 5,6 --- 9,5
15.03.2020 7,4 7,4 8,4 8,8 15,3 2,9 61 0,0 4289 2,4 10,7 --- 10,0
14.03.2020 7,2 6,9 5,8 6,0 13,2 0,6 77 0,0 3408 1,4 6,8 --- 9,1
13.03.2020 7,6 7,0 6,9 6,9 10,9 4,3 66 0,0 2560 2,6 12,7 --- 7,7
12.03.2020 8,7 9,3 10,9 11,2 13,6 6,2 70 3,0 1511 3,0 17,1 --- 5,7
11.03.2020 8,0 9,2 12,1 12,6 14,3 10,6 86 2,2 731 2,7 10,2 --- 0,9
10.03.2020 6,7 6,4 6,8 7,0 10,8 3,8 91 6,0 685 3,3 11,3 --- 1,1
09.03.2020 7,1 7,6 8,0 7,9 12,0 4,9 80 2,2 2527 1,6 9,9 --- 6,7
08.03.2020 5,9 6,1 7,7 7,6 11,8 3,0 70 0,0 2325 2,8 10,4 --- 7,3
07.03.2020 5,7 5,4 5,7 5,8 8,3 3,2 71 0,1 1828 2,3 9,7 --- 7,2
06.03.2020 6,1 6,0 5,7 6,0 8,4 4,8 88 6,1 662 3,6 10,7 --- 1,7
05.03.2020 5,9 5,5 5,3 5,3 7,8 2,6 88 6,9 1058 2,8 9,6 --- 4,0
04.03.2020 6,0 5,4 4,0 4,0 10,7 0,4 86 1,8 2259 1,7 10,0 --- 6,4
03.03.2020 6,7 6,5 5,5 5,5 9,6 1,1 77 4,3 2619 2,0 9,0 --- 8,0
02.03.2020 6,6 6,6 6,6 6,7 11,4 1,3 78 3,5 2693 2,6 13,2 --- 7,4
01.03.2020 6,4 6,6 8,2 8,3 12,1 5,2 69 2,5 2378 3,1 14,2 --- 6,6
29.02.2020 5,6 6,1 8,0 8,2 14,3 3,8 79 4,4 1886 3,3 16,6 --- 6,0
28.02.2020 4,6 4,2 4,3 4,3 7,7 1,7 73 1,2 2591 3,0 13,5 --- 7,6
27.02.2020 5,0 4,0 2,4 2,6 5,2 0,2 86 6,6 928 3,2 9,6 --- 2,7
26.02.2020 6,1 5,2 3,4 3,7 5,8 2,2 83 1,9 1113 3,0 10,7 --- 4,0
25.02.2020 6,9 7,4 8,4 8,5 12,0 5,7 80 1,2 1448 2,9 12,1 --- 5,4
24.02.2020 6,4 6,2 6,5 6,8 11,2 3,3 81 1,3 694 2,7 11,9 --- 1,1
23.02.2020 6,5 7,2 9,4 9,9 12,9 7,9 83 7,1 288 4,0 16,0 --- ---
22.02.2020 5,5 5,2 7,5 7,6 11,0 2,9 63 0,0 1934 3,0 13,3 --- 5,1
21.02.2020 5,7 5,4 6,0 6,0 9,5 2,6 67 1,3 2213 2,8 16,9 --- 7,3
20.02.2020 5,3 5,2 6,6 6,7 9,9 2,3 74 0,9 1071 2,8 12,7 --- 3,2
19.02.2020 5,7 5,3 5,4 5,7 7,7 1,7 71 2,5 1311 2,9 14,2 --- 4,4
18.02.2020 6,1 5,9 6,9 7,0 8,8 5,4 70 0,1 1269 3,0 10,8 --- 4,6
17.02.2020 6,7 7,1 8,1 8,4 16,7 4,7 81 5,1 597 2,5 15,1 --- 0,4
16.02.2020 5,8 6,6 12,9 13,3 17,6 7,7 51 0,0 1108 3,8 16,3 --- 3,8
15.02.2020 4,7 4,8 6,4 6,9 12,9 2,5 78 0,0 2363 1,6 9,2 --- 7,5
14.02.2020 4,2 4,4 5,7 6,0 7,6 4,6 83 0,4 829 1,5 8,9 --- 2,5
13.02.2020 3,5 2,5 2,4 2,8 5,7 0,0 89 4,6 585 2,8 15,1 --- 0,2
12.02.2020 4,2 3,3 3,5 3,9 7,0 1,1 74 0,1 1397 2,5 11,9 --- 4,7
11.02.2020 5,2 4,5 5,0 5,2 8,0 0,9 66 2,5 1890 4,9 18,1 --- 5,0
10.02.2020 5,8 6,4 8,3 8,7 13,7 4,9 71 9,4 1721 5,4 23,9 --- 4,7
09.02.2020 4,0 4,1 6,8 7,2 13,6 -0,1 73 0,2 1386 3,1 16,5 --- 4,2
08.02.2020 3,3 2,5 2,4 2,8 7,0 -2,5 76 0,0 1573 0,9 6,7 --- 6,2
07.02.2020 3,5 2,2 0,8 1,0 7,4 -3,7 82 0,1 2480 1,7 6,6 --- 7,6
06.02.2020 4,3 2,8 0,0 0,3 4,2 -2,4 88 0,0 923 0,7 2,8 --- 3,6
05.02.2020 5,5 4,3 3,3 3,6 8,6 -1,5 74 0,1 2227 2,0 7,1 --- 6,8
04.02.2020 6,9 6,2 4,8 4,9 7,7 1,9 88 11,6 1113 3,1 11,0 --- 4,1
03.02.2020 7,4 7,8 9,9 10,2 12,0 7,7 77 7,1 876 2,2 10,6 --- 2,3
02.02.2020 7,0 7,0 8,6 9,2 13,6 5,4 80 5,1 368 2,1 11,3 --- ---
01.02.2020 7,4 8,3 10,7 11,1 12,7 7,5 88 9,8 310 2,7 19,0 --- ---
31.01.2020 6,0 7,4 11,9 12,1 15,4 8,4 83 0,0 1121 2,5 8,9 --- 4,5
30.01.2020 4,2 4,2 6,5 6,5 9,3 3,3 84 0,1 1368 2,6 9,8 --- 4,9
29.01.2020 4,0 3,4 3,7 3,8 7,3 1,3 79 0,6 933 2,1 9,3 --- 2,4
28.01.2020 4,6 4,6 4,9 5,3 7,5 1,3 83 4,0 831 3,6 12,6 --- 2,3
27.01.2020 3,7 3,8 4,5 4,5 8,2 1,3 98 6,1 368 2,5 10,3 --- 0,3
26.01.2020 3,1 2,9 2,2 1,8 3,6 0,2 100 0,1 714 1,0 4,2 --- 2,5
25.01.2020 2,8 2,3 0,8 0,4 1,2 -0,9 97 0,0 388 0,6 2,9 --- ---
24.01.2020 2,8 2,1 0,7 0,4 1,3 -0,5 93 0,0 514 1,2 5,3 --- 0,8
23.01.2020 2,3 1,6 1,7 1,1 5,7 -1,2 95 0,1 1465 1,2 5,0 --- 4,9
22.01.2020 2,5 0,9 -3,0 -3,1 -1,0 -5,8 97 0,0 426 0,7 3,6 --- ---
21.01.2020 3,2 1,6 -0,6 -0,5 5,0 -4,2 90 0,1 2008 1,1 3,2 --- 6,5
20.01.2020 4,0 2,9 1,9 1,8 7,1 -1,3 80 0,0 1441 1,3 4,6 --- 5,2
19.01.2020 4,3 3,2 1,6 1,8 4,9 -1,0 84 0,6 853 0,9 5,3 --- 2,8
18.01.2020 5,2 4,2 3,3 3,9 7,1 0,8 85 0,1 903 0,9 9,1 --- 3,1
17.01.2020 5,7 4,9 5,2 5,8 8,5 0,2 92 0,0 871 0,8 4,9 --- 3,3
16.01.2020 6,5 6,7 9,5 9,6 13,4 6,3 91 0,0 1294 1,2 5,4 --- 5,0
15.01.2020 5,8 6,1 10,5 10,5 13,2 7,0 73 0,0 1401 2,7 9,2 --- 5,7
14.01.2020 5,1 5,1 8,0 8,3 11,4 5,2 79 0,0 684 2,8 8,4 --- 2,6
13.01.2020 4,6 4,5 5,5 5,5 6,6 4,5 94 0,0 521 2,4 7,6 --- 1,2
12.01.2020 4,2 2,9 1,7 2,1 5,2 -1,8 95 0,0 424 1,9 10,1 --- ---
11.01.2020 5,6 4,7 3,5 3,7 7,0 0,3 85 0,0 1134 1,5 6,1 --- 4,2
10.01.2020 6,5 6,8 7,7 8,0 10,9 4,9 88 2,1 472 2,5 9,6 --- 0,9
09.01.2020 5,5 6,3 9,0 9,2 11,8 6,6 100 12,7 272 2,3 7,0 --- ---
08.01.2020 4,2 4,1 4,8 4,9 6,8 3,1 99 1,9 238 1,5 5,0 --- ---
07.01.2020 3,9 3,6 3,1 3,0 7,2 -0,4 97 0,5 655 1,5 7,2 --- 1,7
06.01.2020 4,2 3,8 1,7 1,4 4,6 -0,8 100 0,1 553 1,2 4,4 --- 0,9
05.01.2020 4,1 4,3 4,8 4,7 6,0 3,5 99 2,0 436 0,8 5,0 --- 0,3
04.01.2020 3,6 3,6 4,8 5,0 8,3 2,6 85 0,0 373 1,8 12,1 --- 0,6
03.01.2020 2,3 2,0 4,4 4,5 8,1 0,4 97 0,3 331 1,6 9,2 --- ---
02.01.2020 2,0 0,8 -1,4 -1,5 0,5 -4,4 100 0,1 299 1,0 5,1 --- ---
01.01.2020 2,2 0,9 -0,4 -0,4 4,7 -4,3 95 0,1 1476 1,0 3,2 --- 6,0

Mittelwerte (Temperaturen, Strahlung, rel. Feuchte, Wind), Summe (Regen) für 2020
12,8 12,9 12,0 12,0 69 330 4.223 2,0

Landesbetrieb Landwirtschaft Hessen 2009

      Werte bis 5 Uhr SommerzeitCSV-Datei: Oberissigheim20.csvDiagramm: Oberissigheim